createdAt,value
2018-03-20T00:01:48.286Z,5.70
2018-03-20T00:04:14.675Z,5.60
2018-03-20T00:06:41.090Z,6.40
2018-03-20T00:09:08.318Z,5.70
2018-03-20T00:11:34.710Z,6.93
2018-03-20T00:14:01.158Z,5.90
2018-03-20T00:16:27.724Z,6.80
2018-03-20T00:18:54.235Z,5.63
2018-03-20T00:21:20.688Z,5.60
2018-03-20T00:23:47.104Z,6.70
2018-03-20T00:26:15.227Z,5.70
2018-03-20T00:28:41.687Z,6.37
2018-03-20T00:31:08.097Z,5.70
2018-03-20T00:33:34.532Z,5.10
2018-03-20T00:36:01.691Z,5.80
2018-03-20T00:38:28.075Z,6.07
2018-03-20T00:40:54.580Z,5.30
2018-03-20T00:43:21.022Z,7.03
2018-03-20T00:45:47.438Z,5.87
2018-03-20T00:48:13.828Z,5.43
2018-03-20T00:50:41.162Z,6.10
2018-03-20T00:53:08.310Z,5.70
2018-03-20T00:55:34.741Z,6.27
2018-03-20T00:58:01.171Z,6.00
2018-03-20T01:00:27.598Z,6.17
2018-03-20T01:02:53.982Z,6.43
2018-03-20T01:05:20.576Z,5.87
2018-03-20T01:07:47.828Z,6.07
2018-03-20T01:10:14.241Z,5.47
2018-03-20T01:12:40.667Z,6.80
2018-03-20T01:15:07.130Z,5.50
2018-03-20T01:17:33.580Z,5.97
2018-03-20T01:20:00.050Z,5.77
2018-03-20T01:22:26.613Z,5.53
2018-03-20T01:24:53.011Z,6.07
2018-03-20T01:27:19.451Z,5.37
2018-03-20T01:29:45.872Z,6.53
2018-03-20T01:32:12.306Z,6.30
2018-03-20T01:34:38.897Z,5.90
2018-03-20T01:37:05.332Z,6.83
2018-03-20T01:39:31.856Z,5.07
2018-03-20T01:41:58.287Z,4.73
2018-03-20T01:44:24.687Z,5.80
2018-03-20T01:46:51.103Z,5.07
2018-03-20T01:49:17.602Z,5.53
2018-03-20T01:51:44.754Z,5.87
2018-03-20T01:54:11.944Z,4.70
2018-03-20T01:56:38.406Z,5.13
2018-03-20T01:59:04.805Z,5.70
2018-03-20T02:01:31.195Z,5.97
2018-03-20T02:03:57.625Z,6.00
2018-03-20T02:06:24.039Z,5.40
2018-03-20T02:08:50.441Z,5.53
2018-03-20T02:11:16.863Z,5.47
2018-03-20T02:13:43.299Z,5.57
2018-03-20T02:16:09.734Z,6.33
2018-03-20T02:18:36.902Z,4.90
2018-03-20T02:21:03.319Z,7.50
2018-03-20T02:23:29.788Z,5.53
2018-03-20T02:25:56.258Z,5.43
2018-03-20T02:28:23.404Z,5.63
2018-03-20T02:30:49.795Z,4.90
2018-03-20T02:33:16.190Z,5.47
2018-03-20T02:35:43.360Z,5.03
2018-03-20T02:38:09.822Z,5.97
2018-03-20T02:40:36.458Z,5.63
2018-03-20T02:43:02.907Z,5.77
2018-03-20T02:45:29.299Z,5.17
2018-03-20T02:47:55.881Z,5.93
2018-03-20T02:50:23.028Z,5.60
2018-03-20T02:52:49.464Z,5.50
2018-03-20T02:55:15.926Z,5.70
2018-03-20T02:57:42.346Z,6.00
2018-03-20T03:00:09.489Z,4.80
2018-03-20T03:02:35.911Z,6.87
2018-03-20T03:05:03.095Z,5.20
2018-03-20T03:07:29.501Z,4.80
2018-03-20T03:09:56.718Z,6.07
2018-03-20T03:12:23.124Z,5.50
2018-03-20T03:14:49.542Z,5.23
2018-03-20T03:17:16.003Z,5.87
2018-03-20T03:19:42.478Z,5.20
2018-03-20T03:22:08.887Z,5.80
2018-03-20T03:24:35.925Z,5.67
2018-03-20T03:27:02.399Z,5.67
2018-03-20T03:29:28.927Z,5.60
2018-03-20T03:31:55.378Z,4.90
2018-03-20T03:34:22.612Z,5.80
2018-03-20T03:36:49.077Z,5.90
2018-03-20T03:39:15.519Z,4.90
2018-03-20T03:41:41.916Z,4.80
2018-03-20T03:44:08.300Z,5.80
2018-03-20T03:46:34.717Z,5.77
2018-03-20T03:49:01.128Z,5.50
2018-03-20T03:51:28.314Z,5.80
2018-03-20T03:53:54.753Z,5.30
2018-03-20T03:56:21.326Z,5.30
2018-03-20T03:58:47.866Z,4.97
2018-03-20T04:01:14.335Z,5.63
2018-03-20T04:03:40.779Z,4.97
2018-03-20T04:06:07.171Z,5.63
2018-03-20T04:08:34.485Z,4.83
2018-03-20T04:11:00.898Z,5.83
2018-03-20T04:13:27.344Z,5.40
2018-03-20T04:15:53.769Z,4.67
2018-03-20T04:18:20.171Z,5.27
2018-03-20T04:20:46.565Z,5.53
2018-03-20T04:23:13.012Z,4.70
2018-03-20T04:25:40.257Z,4.87
2018-03-20T04:28:07.426Z,4.77
2018-03-20T04:30:33.863Z,4.43
2018-03-20T04:33:00.242Z,4.83
2018-03-20T04:35:26.668Z,4.77
2018-03-20T04:37:53.082Z,5.97
2018-03-20T04:40:19.542Z,4.67
2018-03-20T04:42:45.954Z,5.10
2018-03-20T04:45:12.367Z,5.30
2018-03-20T04:47:38.779Z,6.07
2018-03-20T04:50:05.920Z,4.87
2018-03-20T04:52:32.410Z,5.10
2018-03-20T04:54:58.872Z,5.70
2018-03-20T04:57:26.052Z,6.00
2018-03-20T04:59:53.218Z,5.37
2018-03-20T05:02:20.396Z,5.30
2018-03-20T05:04:46.821Z,6.57
2018-03-20T05:07:13.309Z,5.77
2018-03-20T05:09:39.693Z,7.13
2018-03-20T05:12:06.096Z,6.17
2018-03-20T05:14:33.359Z,6.50
2018-03-20T05:16:59.799Z,5.93
2018-03-20T05:22:34.246Z,6.00
2018-03-20T05:25:00.738Z,6.43
2018-03-20T05:27:27.915Z,5.67
2018-03-20T05:29:55.136Z,6.10
2018-03-20T05:32:21.671Z,6.23
2018-03-20T05:34:48.180Z,5.97
2018-03-20T05:37:14.603Z,6.93
2018-03-20T05:39:41.119Z,7.73
2018-03-20T05:42:07.619Z,7.10
2018-03-20T05:44:34.787Z,6.17
2018-03-20T05:50:16.716Z,7.90
2018-03-20T05:52:43.185Z,6.80
2018-03-20T05:55:09.626Z,7.37
2018-03-20T05:57:36.069Z,9.30
2018-03-20T06:00:02.529Z,7.03
2018-03-20T06:02:29.835Z,7.57
2018-03-20T06:04:56.232Z,5.90
2018-03-20T06:07:22.729Z,6.67
2018-03-20T06:09:49.262Z,7.60
2018-03-20T06:12:15.710Z,8.33
2018-03-20T06:14:42.172Z,9.13
2018-03-20T06:17:08.766Z,8.33
2018-03-20T06:19:35.889Z,9.63
2018-03-20T06:22:02.315Z,8.40
2018-03-20T06:24:28.710Z,11.00
2018-03-20T06:26:55.175Z,10.90
2018-03-20T06:29:21.625Z,11.60
2018-03-20T06:31:48.261Z,10.30
2018-03-20T06:34:14.803Z,8.77
2018-03-20T06:36:41.271Z,10.77
2018-03-20T06:39:08.496Z,9.60
2018-03-20T06:41:35.043Z,8.40
2018-03-20T06:44:02.212Z,9.73
2018-03-20T06:46:29.420Z,8.00
2018-03-20T06:48:55.883Z,7.30
2018-03-20T06:51:22.295Z,8.00
2018-03-20T06:53:48.701Z,8.93
2018-03-20T06:56:15.172Z,7.00
2018-03-20T06:58:41.633Z,7.97
2018-03-20T07:01:08.243Z,8.13
2018-03-20T07:03:34.720Z,7.13
2018-03-20T07:06:01.930Z,7.70
2018-03-20T07:08:28.474Z,8.10
2018-03-20T07:10:55.718Z,8.43
2018-03-20T07:13:22.885Z,8.10
2018-03-20T07:15:50.230Z,8.47
2018-03-20T07:18:16.728Z,9.50
2018-03-20T07:20:43.205Z,7.40
2018-03-20T07:23:10.347Z,7.37
2018-03-20T07:25:37.511Z,7.80
2018-03-20T07:28:03.907Z,7.90
2018-03-20T07:30:30.311Z,7.90
2018-03-20T07:32:56.750Z,7.20
2018-03-20T07:35:23.328Z,6.60
2018-03-20T07:37:50.574Z,7.23
2018-03-20T07:40:17.015Z,8.67
2018-03-20T07:42:44.218Z,9.10
2018-03-20T07:45:10.622Z,8.03
2018-03-20T07:47:37.759Z,7.10
2018-03-20T07:50:04.950Z,7.57
2018-03-20T07:52:31.345Z,7.47
2018-03-20T07:54:58.492Z,7.37
2018-03-20T07:57:24.955Z,6.93
2018-03-20T07:59:51.375Z,6.33
2018-03-20T08:02:17.833Z,7.10
2018-03-20T08:04:44.279Z,7.50
2018-03-20T08:07:10.676Z,6.67
2018-03-20T08:09:37.076Z,7.43
2018-03-20T08:12:03.533Z,6.93
2018-03-20T08:14:30.131Z,7.77
2018-03-20T08:16:56.621Z,7.30
2018-03-20T08:19:23.105Z,6.87
2018-03-20T08:21:49.595Z,7.60
2018-03-20T08:24:16.132Z,7.93
2018-03-20T08:26:42.586Z,7.20
2018-03-20T08:29:08.978Z,7.30
2018-03-20T08:31:35.508Z,6.50
2018-03-20T08:34:01.954Z,6.50
2018-03-20T08:36:28.343Z,6.67
2018-03-20T08:38:54.971Z,5.83
2018-03-20T08:41:22.849Z,5.83
2018-03-20T08:43:49.247Z,5.80
2018-03-20T08:46:15.723Z,5.80
2018-03-20T08:48:42.913Z,5.90
2018-03-20T08:51:10.046Z,7.57
2018-03-20T08:53:36.442Z,5.80
2018-03-20T08:56:02.949Z,5.77
2018-03-20T08:58:29.646Z,6.40
2018-03-20T09:00:56.958Z,4.90
2018-03-20T09:03:24.212Z,5.90
2018-03-20T09:05:50.660Z,5.70
2018-03-20T09:08:17.198Z,6.13
2018-03-20T09:10:43.612Z,4.90
2018-03-20T09:13:10.025Z,4.97
2018-03-20T09:15:36.461Z,5.40
2018-03-20T09:18:03.207Z,5.90
2018-03-20T09:20:29.582Z,5.07
2018-03-20T09:22:56.724Z,5.30
2018-03-20T09:25:23.894Z,4.93
2018-03-20T09:27:51.092Z,5.30
2018-03-20T09:30:17.507Z,5.60
2018-03-20T09:32:43.942Z,5.83
2018-03-20T09:35:10.414Z,6.70
2018-03-20T09:37:36.953Z,5.30
2018-03-20T09:40:04.899Z,4.70
2018-03-20T09:42:31.321Z,5.30
2018-03-20T09:44:57.727Z,5.90
2018-03-20T09:47:24.217Z,5.57
2018-03-20T09:49:51.364Z,5.70
2018-03-20T09:52:17.790Z,5.40
2018-03-20T09:54:44.306Z,6.20
2018-03-20T09:57:10.742Z,6.00
2018-03-20T09:59:37.148Z,6.63
2018-03-20T10:02:03.602Z,7.80
2018-03-20T10:04:30.003Z,10.27
2018-03-20T10:06:56.580Z,6.93
2018-03-20T10:09:23.082Z,6.77
2018-03-20T10:11:49.565Z,6.80
2018-03-20T10:14:15.977Z,6.77
2018-03-20T10:16:42.430Z,6.87
2018-03-20T10:19:08.858Z,6.67
2018-03-20T10:21:35.258Z,7.30
2018-03-20T10:24:01.840Z,7.87
2018-03-20T10:26:28.247Z,6.43
2018-03-20T10:28:54.646Z,7.10
2018-03-20T10:31:21.094Z,6.60
2018-03-20T10:33:47.596Z,7.00
2018-03-20T10:36:14.019Z,8.17
2018-03-20T10:38:41.211Z,7.40
2018-03-20T10:41:07.604Z,8.87
2018-03-20T10:43:34.004Z,8.40
2018-03-20T10:46:00.392Z,7.30
2018-03-20T10:48:26.802Z,7.50
2018-03-20T10:50:53.174Z,7.00
2018-03-20T10:53:20.365Z,8.53
2018-03-20T10:55:46.823Z,7.30
2018-03-20T10:58:13.227Z,7.13
2018-03-20T11:00:45.841Z,7.90
2018-03-20T11:03:12.300Z,6.77
2018-03-20T11:05:38.778Z,6.73
2018-03-20T11:08:05.201Z,7.50
2018-03-20T11:10:31.615Z,8.37
2018-03-20T11:12:58.015Z,8.97
2018-03-20T11:15:24.517Z,7.20
2018-03-20T11:17:51.714Z,6.97
2018-03-20T11:20:18.194Z,5.97
2018-03-20T11:22:44.597Z,8.43
2018-03-20T11:25:10.995Z,7.10
2018-03-20T11:27:37.404Z,8.00
2018-03-20T11:30:04.641Z,6.60
2018-03-20T11:32:31.084Z,7.60
2018-03-20T11:34:57.487Z,7.17
2018-03-20T11:37:23.925Z,6.90
2018-03-20T11:39:50.317Z,6.80
2018-03-20T11:42:16.718Z,7.90
2018-03-20T11:44:43.975Z,7.60
2018-03-20T11:47:10.468Z,7.07
2018-03-20T11:49:36.921Z,7.37
2018-03-20T11:52:03.383Z,7.90
2018-03-20T11:54:29.799Z,8.03
2018-03-20T11:56:56.227Z,8.00
2018-03-20T11:59:22.628Z,7.23
2018-03-20T12:01:49.061Z,7.27
2018-03-20T12:04:15.448Z,8.17
2018-03-20T12:06:41.868Z,6.60
2018-03-20T12:09:21.330Z,6.93
2018-03-20T12:11:47.794Z,8.00
2018-03-20T12:14:14.220Z,8.13
2018-03-20T12:16:40.795Z,7.97
2018-03-20T12:19:08.048Z,7.83
2018-03-20T12:21:35.214Z,8.13
2018-03-20T12:24:02.411Z,8.50
2018-03-20T12:26:28.934Z,7.23
2018-03-20T12:28:55.327Z,6.90
2018-03-20T12:31:22.459Z,7.60
2018-03-20T12:33:48.907Z,7.70
2018-03-20T12:36:16.126Z,8.10
2018-03-20T12:38:42.534Z,7.07
2018-03-20T12:41:09.013Z,9.30
2018-03-20T12:43:35.446Z,8.27
2018-03-20T12:46:01.956Z,12.00
2018-03-20T12:48:28.398Z,9.00
2018-03-20T12:50:54.857Z,15.50
2018-03-20T12:53:21.428Z,7.97
2018-03-20T12:55:47.874Z,8.73
2018-03-20T12:58:14.286Z,10.40
2018-03-20T13:00:40.694Z,8.97
2018-03-20T13:03:07.132Z,7.97
2018-03-20T13:05:33.507Z,7.63
2018-03-20T13:07:59.952Z,8.17
2018-03-20T13:10:26.387Z,7.20
2018-03-20T13:12:52.866Z,7.23
2018-03-20T13:15:20.039Z,7.87
2018-03-20T13:17:47.186Z,5.77
2018-03-20T13:20:13.597Z,8.30
2018-03-20T13:22:39.988Z,6.87
2018-03-20T13:25:06.482Z,7.87
2018-03-20T13:27:32.987Z,7.00
2018-03-20T13:30:00.142Z,6.83
2018-03-20T13:32:27.302Z,6.70
2018-03-20T13:34:53.813Z,7.50
2018-03-20T13:37:20.219Z,7.57
2018-03-20T13:39:46.692Z,6.90
2018-03-20T13:42:13.101Z,6.70
2018-03-20T13:44:39.553Z,6.97
2018-03-20T13:47:06.042Z,7.03
2018-03-20T13:49:32.466Z,8.20
2018-03-20T13:51:58.900Z,8.00
2018-03-20T13:54:33.119Z,7.53
2018-03-20T13:56:59.697Z,7.50
2018-03-20T13:59:26.862Z,6.20
2018-03-20T14:01:54.033Z,6.43
2018-03-20T14:04:21.160Z,6.80
2018-03-20T14:06:47.595Z,6.50
2018-03-20T14:09:14.000Z,7.63
2018-03-20T14:11:40.524Z,6.97
2018-03-20T14:14:06.951Z,7.20
2018-03-20T14:16:33.375Z,5.90
2018-03-20T14:18:59.788Z,6.27
2018-03-20T14:21:26.187Z,8.53
2018-03-20T14:23:52.644Z,6.60
2018-03-20T14:26:19.086Z,6.57
2018-03-20T14:28:45.684Z,5.87
2018-03-20T14:31:12.912Z,5.80
2018-03-20T14:33:39.330Z,5.90
2018-03-20T14:36:05.785Z,6.77
2018-03-20T14:38:33.122Z,5.40
2018-03-20T14:40:59.528Z,5.73
2018-03-20T14:43:25.919Z,5.40
2018-03-20T14:45:52.388Z,5.07
2018-03-20T14:48:18.859Z,5.70
2018-03-20T14:50:45.223Z,5.30
2018-03-20T14:53:11.708Z,5.87
2018-03-20T14:55:38.182Z,5.37
2018-03-20T14:58:04.604Z,4.80
2018-03-20T15:00:31.038Z,6.50
2018-03-20T15:02:57.451Z,5.60
2018-03-20T15:05:23.892Z,5.70
2018-03-20T15:07:50.398Z,6.60
2018-03-20T15:10:16.814Z,5.30
2018-03-20T15:12:43.262Z,5.27
2018-03-20T15:15:09.714Z,5.77
2018-03-20T15:17:36.192Z,5.37
2018-03-20T15:20:02.658Z,4.00
2018-03-20T15:22:29.892Z,5.47
2018-03-20T15:24:56.411Z,5.93
2018-03-20T15:27:22.938Z,4.97
2018-03-20T15:29:49.413Z,4.67
2018-03-20T15:32:16.009Z,4.83
2018-03-20T15:34:42.475Z,8.27
2018-03-20T15:37:08.978Z,5.63
2018-03-20T15:39:35.389Z,4.97
2018-03-20T15:42:01.801Z,6.63
2018-03-20T15:44:28.284Z,5.03
2018-03-20T15:46:55.468Z,5.00
2018-03-20T15:49:21.887Z,5.33
2018-03-20T15:51:48.333Z,5.60
2018-03-20T15:54:15.512Z,5.30
2018-03-20T15:56:41.926Z,5.60
2018-03-20T15:59:09.098Z,5.10
2018-03-20T16:01:35.581Z,5.03
2018-03-20T16:04:02.915Z,5.00
2018-03-20T16:06:29.509Z,5.33
2018-03-20T16:08:58.333Z,5.83
2018-03-20T16:11:24.845Z,6.20
2018-03-20T16:13:51.407Z,5.87
2018-03-20T16:16:17.898Z,6.60
2018-03-20T16:18:44.324Z,5.20
2018-03-20T16:21:10.858Z,6.30
2018-03-20T16:23:37.451Z,6.30
2018-03-20T16:26:04.654Z,5.77
2018-03-20T16:28:31.146Z,6.80
2018-03-20T16:30:57.676Z,5.60
2018-03-20T16:33:24.363Z,5.87
2018-03-20T16:35:50.839Z,6.30
2018-03-20T16:38:17.369Z,5.50
2018-03-20T16:40:43.809Z,5.90
2018-03-20T16:43:11.178Z,6.10
2018-03-20T16:45:38.390Z,6.43
2018-03-20T16:48:05.032Z,6.60
2018-03-20T16:50:31.500Z,5.63
2018-03-20T16:52:57.928Z,6.10
2018-03-20T16:55:24.358Z,6.60
2018-03-20T16:57:50.885Z,6.07
2018-03-20T17:00:17.307Z,5.63
2018-03-20T17:02:44.785Z,5.40
2018-03-20T17:05:11.997Z,5.53
2018-03-20T17:07:38.473Z,5.60
2018-03-20T17:10:04.991Z,6.03
2018-03-20T17:12:31.498Z,5.47
2018-03-20T17:14:57.979Z,6.70
2018-03-20T17:17:25.263Z,7.10
2018-03-20T17:19:51.792Z,5.30
2018-03-20T17:22:18.313Z,5.73
2018-03-20T17:24:45.486Z,5.60
2018-03-20T17:27:11.934Z,6.53
2018-03-20T17:29:38.347Z,5.50
2018-03-20T17:32:04.834Z,5.93
2018-03-20T17:34:32.107Z,6.10
2018-03-20T17:36:58.501Z,7.70
2018-03-20T17:39:24.928Z,7.40
2018-03-20T17:41:51.384Z,5.90
2018-03-20T17:44:17.840Z,5.90
2018-03-20T17:46:45.138Z,7.07
2018-03-20T17:49:11.610Z,5.90
2018-03-20T17:51:38.131Z,5.93
2018-03-20T17:54:04.594Z,6.03
2018-03-20T17:56:31.805Z,5.73
2018-03-20T17:58:58.480Z,6.63
2018-03-20T18:01:25.693Z,6.57
2018-03-20T18:03:52.175Z,5.80
2018-03-20T18:06:19.381Z,5.63
2018-03-20T18:08:45.799Z,7.20
2018-03-20T18:11:12.260Z,6.30
2018-03-20T18:13:38.810Z,6.73
2018-03-20T18:16:05.998Z,6.43
2018-03-20T18:18:32.513Z,6.50
2018-03-20T18:20:58.910Z,7.13
2018-03-20T18:23:26.386Z,7.80
2018-03-20T18:25:52.924Z,7.43
2018-03-20T18:28:20.276Z,8.47
2018-03-20T18:30:46.737Z,8.97
2018-03-20T18:33:13.507Z,8.30
2018-03-20T18:35:39.978Z,8.50
2018-03-20T18:38:06.526Z,8.00
2018-03-20T18:40:33.774Z,8.53
2018-03-20T18:43:00.956Z,7.57
2018-03-20T18:45:27.557Z,7.53
2018-03-20T18:47:54.041Z,8.33
2018-03-20T18:50:20.496Z,8.83
2018-03-20T18:52:46.916Z,8.83
2018-03-20T18:55:13.436Z,8.77
2018-03-20T18:57:39.884Z,8.70
2018-03-20T19:00:06.377Z,8.10
2018-03-20T19:02:33.716Z,8.90
2018-03-20T19:05:00.889Z,7.93
2018-03-20T19:07:28.219Z,9.00
2018-03-20T19:09:55.465Z,9.73
2018-03-20T19:12:21.927Z,8.13
2018-03-20T19:14:48.380Z,9.33
2018-03-20T19:17:15.004Z,9.07
2018-03-20T19:19:41.443Z,9.40
2018-03-20T19:22:07.876Z,10.00
2018-03-20T19:24:34.335Z,10.87
2018-03-20T19:27:00.804Z,9.50
2018-03-20T19:29:27.359Z,9.53
2018-03-20T19:31:53.819Z,9.53
2018-03-20T19:34:20.275Z,9.40
2018-03-20T19:36:46.661Z,9.90
2018-03-20T19:39:13.102Z,8.77
2018-03-20T19:41:40.263Z,9.50
2018-03-20T19:44:06.770Z,8.60
2018-03-20T19:46:33.606Z,9.20
2018-03-20T19:49:00.196Z,9.17
2018-03-20T19:51:26.777Z,9.97
2018-03-20T19:53:53.219Z,9.77
2018-03-20T19:56:19.925Z,9.47
2018-03-20T19:58:46.487Z,10.50
2018-03-20T20:01:12.988Z,10.27
2018-03-20T20:03:40.430Z,10.60
2018-03-20T20:06:06.864Z,9.90
2018-03-20T20:08:33.338Z,8.67
2018-03-20T20:10:59.778Z,10.97
2018-03-20T20:13:26.264Z,10.90
2018-03-20T20:15:52.850Z,9.90
2018-03-20T20:18:19.324Z,10.43
2018-03-20T20:20:45.750Z,10.53
2018-03-20T20:23:12.264Z,10.23
2018-03-20T20:25:38.895Z,10.30
2018-03-20T20:28:05.351Z,11.27
2018-03-20T20:30:32.777Z,11.17
2018-03-20T20:32:59.988Z,12.57
2018-03-20T20:35:26.462Z,12.30
2018-03-20T20:37:52.998Z,12.43
2018-03-20T20:40:19.400Z,12.57
2018-03-20T20:42:45.839Z,10.60
2018-03-20T20:45:12.278Z,11.47
2018-03-20T20:47:38.753Z,11.57
2018-03-20T20:50:05.925Z,12.00
2018-03-20T20:52:32.382Z,11.37
2018-03-20T20:54:58.805Z,11.20
2018-03-20T20:57:25.291Z,11.87
2018-03-20T20:59:52.508Z,12.00
2018-03-20T21:02:18.919Z,10.87
2018-03-20T21:04:45.367Z,11.60
2018-03-20T21:07:11.892Z,12.50
2018-03-20T21:09:38.364Z,11.50
2018-03-20T21:12:05.593Z,10.60
2018-03-20T21:14:32.055Z,10.80
2018-03-20T21:16:58.586Z,11.73
2018-03-20T21:19:25.941Z,12.00
2018-03-20T21:21:52.447Z,12.40
2018-03-20T21:24:18.853Z,11.43
2018-03-20T21:26:45.296Z,11.70
2018-03-20T21:29:11.801Z,11.07
2018-03-20T21:31:38.410Z,10.80
2018-03-20T21:34:04.907Z,11.43
2018-03-20T21:36:31.493Z,12.33
2018-03-20T21:38:58.821Z,13.80
2018-03-20T21:41:25.373Z,11.60
2018-03-20T21:43:52.601Z,10.83
2018-03-20T21:46:19.165Z,11.70
2018-03-20T21:48:46.390Z,11.03
2018-03-20T21:51:12.873Z,12.03
2018-03-20T21:53:40.043Z,11.77
2018-03-20T21:56:06.634Z,11.37
2018-03-20T21:58:33.814Z,11.90
2018-03-20T22:01:01.070Z,11.90
2018-03-20T22:03:27.546Z,11.00
2018-03-20T22:05:54.004Z,10.20
2018-03-20T22:08:21.928Z,11.97
2018-03-20T22:10:48.594Z,10.73
2018-03-20T22:13:15.864Z,11.87
2018-03-20T22:15:43.215Z,10.63
2018-03-20T22:18:09.636Z,10.63
2018-03-20T22:20:36.194Z,10.43
2018-03-20T22:23:02.823Z,10.23
2018-03-20T22:25:29.285Z,11.03
2018-03-20T22:27:55.751Z,10.00
2018-03-20T22:30:23.115Z,10.70
2018-03-20T22:32:49.578Z,7.60
2018-03-20T22:35:16.353Z,7.37
2018-03-20T22:37:42.964Z,6.80
2018-03-20T22:40:09.455Z,7.80
2018-03-20T22:42:36.007Z,8.60
2018-03-20T22:45:02.522Z,7.80
2018-03-20T22:47:29.046Z,7.70
2018-03-20T22:49:55.637Z,6.40
2018-03-20T22:52:22.178Z,6.80
2018-03-20T22:54:49.412Z,6.43
2018-03-20T22:57:15.855Z,6.77
2018-03-20T22:59:42.241Z,7.60
2018-03-20T23:02:08.690Z,7.00
2018-03-20T23:04:36.250Z,6.77
2018-03-20T23:07:02.717Z,6.63
2018-03-20T23:09:29.111Z,6.33
2018-03-20T23:11:55.679Z,6.10
2018-03-20T23:14:22.685Z,5.50
2018-03-20T23:16:49.183Z,4.70
2018-03-20T23:19:16.398Z,4.73
2018-03-20T23:21:42.904Z,4.40
2018-03-20T23:24:09.315Z,4.80
2018-03-20T23:26:35.734Z,4.10
2018-03-20T23:29:02.137Z,4.00
2018-03-20T23:31:28.534Z,4.40
2018-03-20T23:33:54.960Z,3.97
2018-03-20T23:36:21.367Z,4.23
2018-03-20T23:38:47.800Z,3.73
2018-03-20T23:41:14.993Z,5.83
2018-03-20T23:43:41.399Z,4.47
2018-03-20T23:46:08.082Z,3.60
2018-03-20T23:48:34.487Z,4.10
2018-03-20T23:51:00.952Z,3.53
2018-03-20T23:53:27.359Z,3.77
2018-03-20T23:55:53.833Z,3.90
2018-03-20T23:58:20.264Z,3.43
